createdAt,value
2022-10-28T01:00:42.791Z,14.00
2022-10-28T01:03:10.005Z,14.00
2022-10-28T01:05:41.408Z,14.00
2022-10-28T01:08:08.243Z,14.00
2022-10-28T01:10:56.290Z,14.00
2022-10-28T01:13:29.048Z,14.00
2022-10-28T01:16:33.042Z,14.00
2022-10-28T01:19:25.555Z,14.00
2022-10-28T01:22:34.021Z,14.00
2022-10-28T01:25:19.379Z,14.00
2022-10-28T01:28:20.769Z,13.90
2022-10-28T01:31:09.304Z,13.90
2022-10-28T01:33:41.150Z,13.90
2022-10-28T01:36:28.117Z,13.80
2022-10-28T01:39:03.959Z,13.80
2022-10-28T01:41:48.614Z,13.70
2022-10-28T01:44:26.979Z,13.70
2022-10-28T01:46:56.540Z,13.70
2022-10-28T01:49:29.363Z,13.70
2022-10-28T01:52:01.975Z,13.70
2022-10-28T01:54:31.255Z,13.60
2022-10-28T01:56:58.938Z,13.60
2022-10-28T01:59:28.955Z,13.60
2022-10-28T02:01:57.041Z,13.60
2022-10-28T02:04:23.947Z,13.50
2022-10-28T02:06:59.807Z,13.50
2022-10-28T02:09:54.292Z,13.50
2022-10-28T02:12:24.071Z,13.40
2022-10-28T02:14:56.392Z,13.40
2022-10-28T02:17:38.125Z,13.40
2022-10-28T02:20:37.241Z,13.30
2022-10-28T02:23:27.398Z,13.30
2022-10-28T02:26:09.211Z,13.30
2022-10-28T02:28:39.078Z,13.30
2022-10-28T02:31:20.663Z,13.30
2022-10-28T02:33:53.011Z,13.30
2022-10-28T02:36:22.323Z,13.20
2022-10-28T02:38:58.633Z,13.20
2022-10-28T02:41:37.359Z,13.20
2022-10-28T02:44:11.251Z,13.10
2022-10-28T02:46:40.717Z,13.10
2022-10-28T02:49:12.042Z,13.00
2022-10-28T02:51:44.709Z,13.00
2022-10-28T02:54:16.057Z,13.00
2022-10-28T02:56:51.455Z,13.00
2022-10-28T02:59:18.340Z,13.00
2022-10-28T03:01:45.337Z,13.00
2022-10-28T03:04:12.210Z,13.00
2022-10-28T03:06:39.080Z,13.00
2022-10-28T03:09:05.903Z,13.00
2022-10-28T03:11:32.965Z,13.00
2022-10-28T03:13:59.951Z,13.00
2022-10-28T03:16:27.115Z,13.00
2022-10-28T03:18:54.495Z,13.00
2022-10-28T03:21:21.532Z,13.00
2022-10-28T03:23:48.373Z,13.00
2022-10-28T03:26:15.239Z,13.00
2022-10-28T03:28:42.132Z,12.90
2022-10-28T03:31:08.947Z,12.90
2022-10-28T03:33:36.154Z,12.80
2022-10-28T03:36:02.965Z,12.70
2022-10-28T03:38:29.866Z,12.70
2022-10-28T03:40:56.708Z,12.70
2022-10-28T03:43:23.712Z,12.70
2022-10-28T03:45:50.610Z,12.70
2022-10-28T03:48:17.517Z,12.80
2022-10-28T03:50:44.403Z,12.80
2022-10-28T03:53:11.303Z,12.90
2022-10-28T03:55:38.114Z,12.90
2022-10-28T03:58:05.052Z,12.90
2022-10-28T04:00:31.887Z,12.90
2022-10-28T04:02:58.729Z,12.90
2022-10-28T04:05:25.590Z,12.90
2022-10-28T04:07:54.180Z,13.00
2022-10-28T04:10:21.030Z,12.90
2022-10-28T04:12:47.921Z,13.00
2022-10-28T04:15:14.779Z,13.00
2022-10-28T04:17:41.646Z,13.00
2022-10-28T04:20:09.513Z,13.10
2022-10-28T04:22:36.340Z,13.10
2022-10-28T04:25:03.385Z,13.10
2022-10-28T04:27:30.279Z,13.10
2022-10-28T04:29:57.115Z,13.00
2022-10-28T04:32:23.962Z,13.00
2022-10-28T04:34:51.195Z,13.00
2022-10-28T04:37:20.585Z,13.00
2022-10-28T04:39:47.886Z,13.00
2022-10-28T04:42:14.863Z,13.00
2022-10-28T04:44:41.729Z,13.00
2022-10-28T04:47:08.625Z,13.00
2022-10-28T04:49:36.758Z,13.00
2022-10-28T04:52:05.840Z,12.90
2022-10-28T04:54:32.655Z,12.90
2022-10-28T04:56:59.509Z,12.90
2022-10-28T04:59:26.365Z,12.90
2022-10-28T05:01:53.304Z,12.90
2022-10-28T05:04:20.188Z,12.90
2022-10-28T05:06:47.126Z,12.90
2022-10-28T05:09:14.064Z,12.90
2022-10-28T05:11:41.276Z,13.00
2022-10-28T05:14:08.118Z,13.00
2022-10-28T05:16:35.008Z,13.00
2022-10-28T05:19:01.850Z,13.00
2022-10-28T05:21:28.688Z,13.00
2022-10-28T05:23:55.518Z,13.10
2022-10-28T05:26:22.349Z,13.10
2022-10-28T05:28:50.537Z,13.10
2022-10-28T05:31:18.362Z,13.00
2022-10-28T05:33:45.287Z,13.00
2022-10-28T05:36:12.086Z,13.00
2022-10-28T05:38:40.071Z,13.10
2022-10-28T05:41:06.949Z,13.10
2022-10-28T05:43:33.812Z,13.10
2022-10-28T05:46:00.927Z,13.10
2022-10-28T05:48:27.728Z,13.10
2022-10-28T05:50:54.535Z,13.10
2022-10-28T05:53:21.374Z,13.10
2022-10-28T05:55:48.240Z,13.10
2022-10-28T05:58:15.513Z,13.10
2022-10-28T06:00:42.358Z,13.10
2022-10-28T06:03:12.242Z,13.10
2022-10-28T06:05:44.644Z,13.10
2022-10-28T06:08:13.264Z,13.10
2022-10-28T06:10:41.075Z,13.10
2022-10-28T06:13:07.730Z,13.10
2022-10-28T06:15:34.553Z,13.10
2022-10-28T06:18:01.731Z,13.00
2022-10-28T06:20:28.571Z,13.10
2022-10-28T06:22:56.269Z,13.00
2022-10-28T06:25:24.734Z,13.00
2022-10-28T06:27:56.465Z,13.00
2022-10-28T06:30:24.894Z,13.00
2022-10-28T06:32:51.931Z,13.00
2022-10-28T06:35:18.732Z,13.00
2022-10-28T06:37:45.735Z,13.00
2022-10-28T06:40:12.712Z,13.10
2022-10-28T06:42:39.529Z,13.10
2022-10-28T06:45:06.897Z,13.20
2022-10-28T06:47:39.041Z,13.20
2022-10-28T06:50:08.770Z,13.30
2022-10-28T06:52:35.745Z,13.30
2022-10-28T06:55:02.652Z,13.40
2022-10-28T06:57:29.521Z,13.40
2022-10-28T06:59:56.506Z,13.50
2022-10-28T07:02:23.480Z,13.50
2022-10-28T07:04:50.364Z,13.50
2022-10-28T07:07:17.279Z,13.50
2022-10-28T07:09:45.033Z,13.50
2022-10-28T07:12:12.016Z,13.50
2022-10-28T07:14:38.881Z,13.50
2022-10-28T07:17:05.751Z,13.50
2022-10-28T07:19:32.596Z,13.50
2022-10-28T07:21:59.459Z,13.50
2022-10-28T07:26:57.030Z,13.50
2022-10-28T07:29:24.764Z,13.60
2022-10-28T07:31:55.341Z,13.70
2022-10-28T07:34:26.810Z,13.70
2022-10-28T07:36:55.243Z,13.80
2022-10-28T07:39:22.271Z,13.80
2022-10-28T07:41:49.076Z,13.80
2022-10-28T07:44:16.001Z,13.80
2022-10-28T07:46:43.038Z,13.90
2022-10-28T07:49:09.955Z,13.90
2022-10-28T07:51:36.861Z,14.00
2022-10-28T07:54:03.752Z,14.10
2022-10-28T07:56:30.611Z,14.10
2022-10-28T07:58:57.418Z,14.20
2022-10-28T08:01:24.350Z,14.30
2022-10-28T08:03:51.329Z,14.50
2022-10-28T08:06:20.396Z,14.70
2022-10-28T08:08:48.967Z,14.90
2022-10-28T08:11:20.741Z,15.00
2022-10-28T08:13:48.428Z,15.20
2022-10-28T08:16:15.340Z,15.30
2022-10-28T08:18:42.587Z,15.30
2022-10-28T08:21:11.429Z,15.40
2022-10-28T08:23:41.654Z,15.60
2022-10-28T08:26:08.678Z,15.70
2022-10-28T08:28:35.500Z,15.90
2022-10-28T08:31:08.728Z,16.00
2022-10-28T08:33:38.105Z,16.10
2022-10-28T08:36:05.829Z,16.30
2022-10-28T08:38:32.660Z,16.60
2022-10-28T08:41:14.872Z,17.70
2022-10-28T08:43:57.056Z,18.50
2022-10-28T08:47:02.574Z,18.80
2022-10-28T08:49:32.371Z,18.50
2022-10-28T08:52:09.077Z,18.20
2022-10-28T08:54:42.789Z,18.00
2022-10-28T08:57:18.052Z,17.80
2022-10-28T08:59:46.556Z,17.50
2022-10-28T09:02:19.223Z,17.10
2022-10-28T09:04:46.928Z,16.90
2022-10-28T09:07:18.536Z,16.80
2022-10-28T09:09:46.924Z,16.80
2022-10-28T09:12:28.700Z,16.60
2022-10-28T09:15:30.651Z,16.70
2022-10-28T09:18:11.600Z,16.80
2022-10-28T09:21:06.254Z,16.80
2022-10-28T09:23:42.439Z,16.80
2022-10-28T09:26:52.773Z,16.70
2022-10-28T09:29:32.067Z,16.70
2022-10-28T09:32:06.710Z,16.70
2022-10-28T09:34:56.537Z,16.70
2022-10-28T09:37:32.792Z,17.00
2022-10-28T09:40:14.316Z,17.90
2022-10-28T09:42:47.553Z,19.40
2022-10-28T09:45:21.782Z,19.90
2022-10-28T09:48:05.545Z,20.10
2022-10-28T09:50:33.312Z,20.20
2022-10-28T09:53:38.897Z,21.10
2022-10-28T09:58:34.748Z,25.10
2022-10-28T10:01:04.921Z,26.80
2022-10-28T10:03:32.596Z,28.50
2022-10-28T10:06:09.199Z,29.70
2022-10-28T10:08:37.579Z,30.50
2022-10-28T10:11:20.566Z,29.80
2022-10-28T10:13:48.301Z,29.60
2022-10-28T10:16:40.597Z,29.70
2022-10-28T10:19:09.702Z,29.70
2022-10-28T10:21:43.995Z,29.60
2022-10-28T10:24:33.719Z,28.50
2022-10-28T10:27:02.550Z,27.60
2022-10-28T10:29:30.665Z,27.00
2022-10-28T10:32:33.311Z,26.20
2022-10-28T10:35:29.413Z,26.30
2022-10-28T10:37:58.716Z,26.30
2022-10-28T10:40:33.588Z,26.70
2022-10-28T10:43:18.186Z,27.20
2022-10-28T10:46:03.634Z,28.00
2022-10-28T10:48:36.645Z,28.60
2022-10-28T10:51:27.569Z,29.40
2022-10-28T10:54:01.562Z,29.30
2022-10-28T10:56:31.194Z,28.90
2022-10-28T10:59:02.989Z,28.30
2022-10-28T11:01:38.572Z,27.70
2022-10-28T11:04:07.920Z,27.10
2022-10-28T11:06:38.974Z,27.30
2022-10-28T11:09:17.811Z,27.10
2022-10-28T11:11:46.460Z,26.80
2022-10-28T11:14:13.482Z,26.30
2022-10-28T11:16:54.843Z,26.10
2022-10-28T11:19:24.404Z,25.70
2022-10-28T11:22:32.520Z,25.30
2022-10-28T11:25:07.907Z,25.30
2022-10-28T11:28:28.427Z,25.60
2022-10-28T11:31:17.145Z,26.40
2022-10-28T11:34:06.108Z,27.50
2022-10-28T11:36:55.324Z,28.10
2022-10-28T11:39:30.707Z,28.60
2022-10-28T11:42:01.614Z,28.60
2022-10-28T11:44:43.133Z,28.50
2022-10-28T11:47:31.807Z,28.30
2022-10-28T11:50:20.715Z,27.80
2022-10-28T11:53:05.736Z,27.30
2022-10-28T11:55:35.548Z,27.30
2022-10-28T11:58:23.938Z,27.00
2022-10-28T12:00:57.622Z,27.10
2022-10-28T12:03:45.786Z,26.70
2022-10-28T12:06:12.573Z,26.40
2022-10-28T12:09:17.794Z,26.20
2022-10-28T12:11:44.755Z,25.90
2022-10-28T12:14:34.479Z,25.90
2022-10-28T12:17:38.997Z,25.80
2022-10-28T12:20:20.741Z,25.40
2022-10-28T12:22:58.284Z,25.20
2022-10-28T12:25:28.946Z,25.00
2022-10-28T12:30:46.906Z,24.80
2022-10-28T12:33:45.523Z,24.60
2022-10-28T12:36:34.395Z,24.50
2022-10-28T12:39:05.849Z,24.40
2022-10-28T12:41:47.660Z,24.40
2022-10-28T12:44:18.975Z,24.40
2022-10-28T12:46:54.904Z,24.20
2022-10-28T12:49:56.693Z,24.20
2022-10-28T12:52:51.168Z,24.10
2022-10-28T12:55:25.739Z,24.20
2022-10-28T12:58:01.377Z,24.30
2022-10-28T13:00:37.832Z,24.30
2022-10-28T13:03:09.696Z,24.30
2022-10-28T13:06:11.722Z,24.40
2022-10-28T13:09:33.271Z,24.40
2022-10-28T13:12:24.194Z,24.40
2022-10-28T13:14:59.886Z,24.60
2022-10-28T13:17:54.797Z,25.00
2022-10-28T13:20:27.680Z,25.30
2022-10-28T13:23:03.561Z,25.30
2022-10-28T13:26:09.304Z,25.30
2022-10-28T13:28:45.210Z,25.50
2022-10-28T13:31:12.371Z,25.70
2022-10-28T13:33:46.156Z,25.70
2022-10-28T13:36:36.380Z,25.90
2022-10-28T13:39:05.824Z,26.00
2022-10-28T13:41:43.340Z,26.00
2022-10-28T13:44:26.298Z,26.10
2022-10-28T13:46:58.969Z,26.10
2022-10-28T13:49:37.800Z,26.00
2022-10-28T13:52:18.839Z,25.70
2022-10-28T13:54:45.652Z,25.40
2022-10-28T13:57:37.391Z,25.20
2022-10-28T14:03:02.212Z,25.00
2022-10-28T14:05:38.330Z,24.80
2022-10-28T14:08:24.729Z,24.60
2022-10-28T14:11:10.476Z,24.40
2022-10-28T14:13:41.367Z,24.30
2022-10-28T14:16:31.607Z,24.30
2022-10-28T14:19:06.568Z,24.00
2022-10-28T14:22:01.519Z,23.80
2022-10-28T14:24:39.558Z,23.80
2022-10-28T14:27:09.091Z,23.70
2022-10-28T14:29:48.437Z,23.60
2022-10-28T14:32:33.467Z,23.60
2022-10-28T14:35:02.640Z,23.50
2022-10-28T14:37:54.267Z,23.50
2022-10-28T14:40:32.867Z,23.40
2022-10-28T14:43:17.811Z,23.40
2022-10-28T14:46:00.813Z,23.30
2022-10-28T14:48:39.502Z,23.20
2022-10-28T14:51:14.209Z,23.20
2022-10-28T14:53:42.856Z,23.10
2022-10-28T14:59:24.011Z,23.00
2022-10-28T15:01:51.212Z,22.90
2022-10-28T15:04:18.292Z,22.90
2022-10-28T15:06:48.143Z,22.80
2022-10-28T15:09:19.815Z,22.80
2022-10-28T15:11:59.234Z,22.70
2022-10-28T15:14:27.984Z,22.70
2022-10-28T15:16:54.991Z,22.70
2022-10-28T15:19:24.518Z,22.60
2022-10-28T15:22:04.244Z,22.60
2022-10-28T15:24:31.245Z,22.50
2022-10-28T15:26:58.765Z,22.40
2022-10-28T15:29:25.922Z,22.30
2022-10-28T15:32:04.699Z,22.30
2022-10-28T15:34:31.574Z,22.20
2022-10-28T15:39:30.921Z,22.10
2022-10-28T15:41:59.080Z,22.10
2022-10-28T15:44:39.667Z,22.00
2022-10-28T15:47:34.657Z,22.00
2022-10-28T15:50:04.474Z,22.00
2022-10-28T15:52:37.150Z,21.90
2022-10-28T15:55:35.499Z,21.90
2022-10-28T15:58:15.082Z,21.80
2022-10-28T16:00:52.419Z,21.70
2022-10-28T16:03:42.954Z,21.60
2022-10-28T16:06:29.289Z,21.50
2022-10-28T16:09:01.949Z,21.40
2022-10-28T16:11:30.034Z,21.30
2022-10-28T16:13:58.145Z,21.30
2022-10-28T16:16:27.870Z,21.20
2022-10-28T16:19:10.152Z,21.10
2022-10-28T16:21:38.181Z,21.00
2022-10-28T16:24:05.248Z,21.00
2022-10-28T16:26:33.445Z,20.90
2022-10-28T16:29:00.320Z,20.90
2022-10-28T16:31:29.521Z,20.90
2022-10-28T16:33:58.919Z,20.80
2022-10-28T16:36:28.216Z,20.80
2022-10-28T16:38:55.303Z,20.70
2022-10-28T16:41:22.830Z,20.70
2022-10-28T16:43:49.676Z,20.70
2022-10-28T16:46:16.507Z,20.60
2022-10-28T16:48:43.429Z,20.60
2022-10-28T16:51:17.558Z,20.60
2022-10-28T16:53:47.554Z,20.60
2022-10-28T16:56:18.193Z,20.60
2022-10-28T16:58:45.431Z,20.50
2022-10-28T17:01:15.541Z,20.60
2022-10-28T17:03:42.438Z,20.50
2022-10-28T17:06:10.649Z,20.50
2022-10-28T17:09:01.388Z,20.40
2022-10-28T17:11:24.548Z,20.40
2022-10-28T17:13:51.444Z,20.40
2022-10-28T17:16:18.272Z,20.30
2022-10-28T17:18:46.569Z,20.30
2022-10-28T17:21:13.401Z,20.30
2022-10-28T17:23:40.619Z,20.20
2022-10-28T17:26:07.455Z,20.10
2022-10-28T17:28:34.520Z,20.10
2022-10-28T17:31:06.162Z,20.00
2022-10-28T17:33:33.552Z,20.00
2022-10-28T17:36:05.998Z,20.00
2022-10-28T17:38:32.846Z,19.90
2022-10-28T17:40:59.673Z,19.90
2022-10-28T17:43:26.794Z,19.80
2022-10-28T17:46:02.408Z,19.80
2022-10-28T17:48:29.741Z,19.70
2022-10-28T17:50:56.553Z,19.60
2022-10-28T17:53:23.748Z,19.60
2022-10-28T17:56:01.856Z,19.50
2022-10-28T17:58:29.728Z,19.40
2022-10-28T18:01:05.383Z,19.40
2022-10-28T18:03:38.132Z,19.40
2022-10-28T18:06:07.364Z,19.30
2022-10-28T18:08:37.479Z,19.30
2022-10-28T18:11:05.427Z,19.30
2022-10-28T18:13:38.098Z,19.30
2022-10-28T18:16:14.667Z,19.30
2022-10-28T18:18:42.782Z,19.20
2022-10-28T18:21:11.361Z,19.20
2022-10-28T18:23:38.972Z,19.20
2022-10-28T18:26:09.600Z,19.20
2022-10-28T18:28:37.503Z,19.10
2022-10-28T18:31:09.795Z,19.10
2022-10-28T18:33:36.862Z,19.10
2022-10-28T18:36:06.647Z,19.00
2022-10-28T18:38:33.925Z,18.90
2022-10-28T18:41:00.818Z,18.80
2022-10-28T18:43:28.208Z,18.80
2022-10-28T18:45:59.890Z,18.80
2022-10-28T18:48:26.719Z,18.70
2022-10-28T18:51:01.703Z,18.60
2022-10-28T18:53:28.761Z,18.60
2022-10-28T18:56:01.014Z,18.50
2022-10-28T18:58:28.154Z,18.40
2022-10-28T19:01:04.215Z,18.40
2022-10-28T19:03:31.393Z,18.40
2022-10-28T19:06:02.922Z,18.30
2022-10-28T19:08:29.906Z,18.30
2022-10-28T19:11:00.672Z,18.20
2022-10-28T19:13:27.982Z,18.20
2022-10-28T19:15:54.912Z,18.20
2022-10-28T19:18:22.191Z,18.20
2022-10-28T19:20:50.688Z,18.20
2022-10-28T19:23:18.210Z,18.20
2022-10-28T19:25:55.668Z,18.10
2022-10-28T19:28:23.074Z,18.10
2022-10-28T19:30:50.329Z,18.10
2022-10-28T19:33:17.273Z,18.00
2022-10-28T19:35:44.064Z,17.90
2022-10-28T19:38:10.902Z,17.80
2022-10-28T19:40:37.761Z,17.70
2022-10-28T19:43:04.604Z,17.70
2022-10-28T19:45:31.414Z,17.60
2022-10-28T19:48:01.778Z,17.60
2022-10-28T19:50:28.597Z,17.50
2022-10-28T19:52:55.541Z,17.50
2022-10-28T19:55:22.402Z,17.50
2022-10-28T19:57:52.001Z,17.40
2022-10-28T20:00:19.986Z,17.40
2022-10-28T20:02:47.594Z,17.40
2022-10-28T20:05:14.545Z,17.40
2022-10-28T20:07:41.783Z,17.30
2022-10-28T20:10:09.001Z,17.30
2022-10-28T20:12:37.437Z,17.30
2022-10-28T20:15:05.786Z,17.30
2022-10-28T20:17:32.603Z,17.20
2022-10-28T20:19:59.440Z,17.20
2022-10-28T20:22:26.297Z,17.20
2022-10-28T20:24:53.130Z,17.20
2022-10-28T20:27:19.967Z,17.10
2022-10-28T20:29:46.771Z,17.10
2022-10-28T20:32:13.599Z,17.00
2022-10-28T20:34:40.440Z,17.00
2022-10-28T20:37:07.285Z,16.90
2022-10-28T20:39:34.116Z,16.90
2022-10-28T20:42:00.931Z,16.90
2022-10-28T20:44:27.730Z,16.90
2022-10-28T20:46:54.559Z,16.90
2022-10-28T20:49:21.357Z,16.80
2022-10-28T20:51:49.683Z,16.80
2022-10-28T20:54:16.510Z,16.80
2022-10-28T20:56:43.360Z,16.70
2022-10-28T20:59:10.531Z,16.60
2022-10-28T21:01:39.499Z,16.60
2022-10-28T21:04:09.570Z,16.50
2022-10-28T21:06:37.912Z,16.50
2022-10-28T21:09:05.583Z,16.50
2022-10-28T21:11:32.718Z,16.50
2022-10-28T21:14:01.129Z,16.50
2022-10-28T21:16:28.812Z,16.60
2022-10-28T21:18:55.683Z,16.60
2022-10-28T21:21:24.107Z,16.50
2022-10-28T21:23:51.111Z,16.50
2022-10-28T21:26:17.988Z,16.50
2022-10-28T21:28:48.216Z,16.40
2022-10-28T21:31:17.138Z,16.40
2022-10-28T21:33:44.855Z,16.30
2022-10-28T21:36:14.370Z,16.30
2022-10-28T21:38:41.240Z,16.30
2022-10-28T21:41:10.966Z,16.30
2022-10-28T21:43:40.086Z,16.30
2022-10-28T21:46:07.518Z,16.20
2022-10-28T21:48:36.010Z,16.30
2022-10-28T21:51:08.617Z,16.30
2022-10-28T21:53:39.334Z,16.30
2022-10-28T21:56:27.472Z,16.20
2022-10-28T21:58:54.300Z,16.20
2022-10-28T22:01:23.247Z,16.20
2022-10-28T22:03:51.481Z,16.10
2022-10-28T22:06:18.403Z,16.10
2022-10-28T22:08:45.284Z,16.10
2022-10-28T22:11:15.264Z,16.00
2022-10-28T22:13:42.440Z,16.00
2022-10-28T22:16:14.892Z,15.90
2022-10-28T22:18:42.478Z,15.90
2022-10-28T22:21:14.785Z,15.80
2022-10-28T22:23:42.081Z,15.80
2022-10-28T22:26:12.086Z,15.70
2022-10-28T22:28:39.366Z,15.70
2022-10-28T22:31:08.638Z,15.60
2022-10-28T22:33:35.764Z,15.70
2022-10-28T22:36:05.195Z,15.70
2022-10-28T22:38:32.122Z,15.60
2022-10-28T22:41:13.108Z,15.60
2022-10-28T22:43:41.085Z,15.50
2022-10-28T22:46:08.717Z,15.50
2022-10-28T22:48:35.623Z,15.50
2022-10-28T22:51:02.937Z,15.40
2022-10-28T22:53:29.887Z,15.40
2022-10-28T22:55:57.308Z,15.30
2022-10-28T22:58:27.932Z,15.30
2022-10-28T23:01:04.940Z,15.30
2022-10-28T23:03:36.147Z,15.30
2022-10-28T23:06:03.038Z,15.30
2022-10-28T23:08:29.833Z,15.20
2022-10-28T23:10:56.671Z,15.20
2022-10-28T23:13:23.508Z,15.20
2022-10-28T23:15:50.361Z,15.10
2022-10-28T23:18:17.622Z,15.10
2022-10-28T23:20:44.473Z,15.10
2022-10-28T23:23:11.335Z,15.00
2022-10-28T23:25:38.175Z,15.00
2022-10-28T23:28:05.856Z,15.00
2022-10-28T23:30:33.000Z,15.00
2022-10-28T23:32:59.864Z,15.00
2022-10-28T23:35:26.713Z,14.90
2022-10-28T23:37:53.849Z,14.90
2022-10-28T23:40:21.045Z,14.90
2022-10-28T23:42:47.822Z,14.80
2022-10-28T23:45:14.723Z,14.80
2022-10-28T23:47:41.542Z,14.70
2022-10-28T23:50:11.000Z,14.70
2022-10-28T23:52:38.005Z,14.70
2022-10-28T23:55:05.334Z,14.70
2022-10-28T23:57:32.155Z,14.80
2022-10-28T23:59:59.158Z,14.70
